sensor_id;sensor_type;location;lat;lon;timestamp;P1;durP1;ratioP1;P2;durP2;ratioP2
41253;SDS011;26987;59.928;30.306;2023-04-24T00:01:58;8.77;;;3.20;;
41253;SDS011;26987;59.928;30.306;2023-04-24T00:04:26;10.23;;;3.42;;
41253;SDS011;26987;59.928;30.306;2023-04-24T00:06:54;9.35;;;2.75;;
41253;SDS011;26987;59.928;30.306;2023-04-24T00:09:23;10.32;;;3.67;;
41253;SDS011;26987;59.928;30.306;2023-04-24T00:11:51;11.27;;;3.95;;
41253;SDS011;26987;59.928;30.306;2023-04-24T00:14:21;11.50;;;3.85;;
41253;SDS011;26987;59.928;30.306;2023-04-24T00:16:49;11.35;;;2.90;;
41253;SDS011;26987;59.928;30.306;2023-04-24T00:19:16;7.82;;;3.30;;
41253;SDS011;26987;59.928;30.306;2023-04-24T00:21:47;9.48;;;3.15;;
41253;SDS011;26987;59.928;30.306;2023-04-24T00:24:16;11.40;;;3.25;;
41253;SDS011;26987;59.928;30.306;2023-04-24T00:26:44;13.60;;;3.08;;
41253;SDS011;26987;59.928;30.306;2023-04-24T00:29:12;10.73;;;3.50;;
41253;SDS011;26987;59.928;30.306;2023-04-24T00:31:41;10.40;;;3.38;;
41253;SDS011;26987;59.928;30.306;2023-04-24T00:34:09;12.45;;;3.30;;
41253;SDS011;26987;59.928;30.306;2023-04-24T00:36:37;7.85;;;3.08;;
41253;SDS011;26987;59.928;30.306;2023-04-24T00:39:05;14.23;;;3.35;;
41253;SDS011;26987;59.928;30.306;2023-04-24T00:41:34;11.18;;;3.55;;
41253;SDS011;26987;59.928;30.306;2023-04-24T00:44:02;15.23;;;3.05;;
41253;SDS011;26987;59.928;30.306;2023-04-24T00:46:30;9.73;;;3.10;;
41253;SDS011;26987;59.928;30.306;2023-04-24T00:49:00;14.43;;;3.63;;
41253;SDS011;26987;59.928;30.306;2023-04-24T00:51:29;9.48;;;3.40;;
41253;SDS011;26987;59.928;30.306;2023-04-24T00:53:58;11.30;;;3.42;;
41253;SDS011;26987;59.928;30.306;2023-04-24T00:56:27;5.93;;;2.97;;
41253;SDS011;26987;59.928;30.306;2023-04-24T00:58:55;8.68;;;3.45;;
41253;SDS011;26987;59.928;30.306;2023-04-24T01:01:23;9.20;;;3.28;;
41253;SDS011;26987;59.928;30.306;2023-04-24T01:03:51;10.57;;;3.53;;
41253;SDS011;26987;59.928;30.306;2023-04-24T01:06:22;14.23;;;3.92;;
41253;SDS011;26987;59.928;30.306;2023-04-24T01:08:50;5.68;;;3.38;;
41253;SDS011;26987;59.928;30.306;2023-04-24T01:11:18;8.48;;;3.15;;
41253;SDS011;26987;59.928;30.306;2023-04-24T01:13:47;7.70;;;3.10;;
41253;SDS011;26987;59.928;30.306;2023-04-24T01:16:14;9.35;;;3.22;;
41253;SDS011;26987;59.928;30.306;2023-04-24T01:18:44;6.40;;;2.85;;
41253;SDS011;26987;59.928;30.306;2023-04-24T01:21:13;5.80;;;2.63;;
41253;SDS011;26987;59.928;30.306;2023-04-24T01:23:43;9.63;;;3.38;;
41253;SDS011;26987;59.928;30.306;2023-04-24T01:26:11;7.22;;;3.17;;
41253;SDS011;26987;59.928;30.306;2023-04-24T01:28:40;12.07;;;3.05;;
41253;SDS011;26987;59.928;30.306;2023-04-24T01:31:08;10.93;;;2.70;;
41253;SDS011;26987;59.928;30.306;2023-04-24T01:33:36;5.88;;;2.88;;
41253;SDS011;26987;59.928;30.306;2023-04-24T01:36:04;8.65;;;2.67;;
41253;SDS011;26987;59.928;30.306;2023-04-24T01:38:33;8.57;;;3.08;;
41253;SDS011;26987;59.928;30.306;2023-04-24T01:41:02;9.02;;;3.35;;
41253;SDS011;26987;59.928;30.306;2023-04-24T01:43:30;11.43;;;3.10;;
41253;SDS011;26987;59.928;30.306;2023-04-24T01:45:59;9.73;;;3.05;;
41253;SDS011;26987;59.928;30.306;2023-04-24T01:48:27;5.40;;;2.50;;
41253;SDS011;26987;59.928;30.306;2023-04-24T01:50:56;7.88;;;3.00;;
41253;SDS011;26987;59.928;30.306;2023-04-24T01:53:24;18.85;;;2.90;;
41253;SDS011;26987;59.928;30.306;2023-04-24T01:55:52;8.45;;;2.75;;
41253;SDS011;26987;59.928;30.306;2023-04-24T01:58:21;6.72;;;2.83;;
41253;SDS011;26987;59.928;30.306;2023-04-24T02:00:50;7.63;;;2.80;;
41253;SDS011;26987;59.928;30.306;2023-04-24T02:03:17;6.60;;;3.05;;
41253;SDS011;26987;59.928;30.306;2023-04-24T02:05:48;13.38;;;2.80;;
41253;SDS011;26987;59.928;30.306;2023-04-24T02:08:18;11.65;;;2.60;;
41253;SDS011;26987;59.928;30.306;2023-04-24T02:10:49;6.50;;;2.40;;
41253;SDS011;26987;59.928;30.306;2023-04-24T02:13:17;7.07;;;2.88;;
41253;SDS011;26987;59.928;30.306;2023-04-24T02:15:46;21.00;;;3.47;;
41253;SDS011;26987;59.928;30.306;2023-04-24T02:18:14;6.03;;;2.30;;
41253;SDS011;26987;59.928;30.306;2023-04-24T02:20:42;8.82;;;3.08;;
41253;SDS011;26987;59.928;30.306;2023-04-24T02:23:11;9.73;;;2.67;;
41253;SDS011;26987;59.928;30.306;2023-04-24T02:25:39;10.57;;;3.13;;
41253;SDS011;26987;59.928;30.306;2023-04-24T02:28:07;11.05;;;2.80;;
41253;SDS011;26987;59.928;30.306;2023-04-24T02:30:35;8.52;;;2.50;;
41253;SDS011;26987;59.928;30.306;2023-04-24T02:33:04;7.50;;;2.70;;
41253;SDS011;26987;59.928;30.306;2023-04-24T02:35:32;18.27;;;2.78;;
41253;SDS011;26987;59.928;30.306;2023-04-24T02:38:00;7.40;;;2.83;;
41253;SDS011;26987;59.928;30.306;2023-04-24T02:40:27;12.50;;;3.53;;
41253;SDS011;26987;59.928;30.306;2023-04-24T02:42:55;10.35;;;3.53;;
41253;SDS011;26987;59.928;30.306;2023-04-24T02:45:24;8.75;;;3.53;;
41253;SDS011;26987;59.928;30.306;2023-04-24T02:47:51;6.78;;;2.67;;
41253;SDS011;26987;59.928;30.306;2023-04-24T02:50:21;8.10;;;3.15;;
41253;SDS011;26987;59.928;30.306;2023-04-24T02:52:48;10.43;;;2.88;;
41253;SDS011;26987;59.928;30.306;2023-04-24T02:55:16;8.73;;;3.15;;
41253;SDS011;26987;59.928;30.306;2023-04-24T02:57:44;8.68;;;2.95;;
41253;SDS011;26987;59.928;30.306;2023-04-24T03:00:12;14.68;;;3.65;;
41253;SDS011;26987;59.928;30.306;2023-04-24T03:02:40;10.65;;;3.17;;
41253;SDS011;26987;59.928;30.306;2023-04-24T03:05:08;14.27;;;3.20;;
41253;SDS011;26987;59.928;30.306;2023-04-24T03:07:39;9.55;;;2.92;;
41253;SDS011;26987;59.928;30.306;2023-04-24T03:10:07;18.77;;;3.83;;
41253;SDS011;26987;59.928;30.306;2023-04-24T03:12:35;8.30;;;2.88;;
41253;SDS011;26987;59.928;30.306;2023-04-24T03:15:03;11.18;;;3.22;;
41253;SDS011;26987;59.928;30.306;2023-04-24T03:17:32;12.02;;;3.08;;
41253;SDS011;26987;59.928;30.306;2023-04-24T03:20:00;16.17;;;3.50;;
41253;SDS011;26987;59.928;30.306;2023-04-24T03:22:29;15.32;;;3.10;;
41253;SDS011;26987;59.928;30.306;2023-04-24T03:25:00;9.88;;;2.97;;
41253;SDS011;26987;59.928;30.306;2023-04-24T03:27:28;15.40;;;3.05;;
41253;SDS011;26987;59.928;30.306;2023-04-24T03:30:00;12.60;;;3.58;;
41253;SDS011;26987;59.928;30.306;2023-04-24T03:32:40;17.17;;;3.50;;
41253;SDS011;26987;59.928;30.306;2023-04-24T03:35:11;10.75;;;3.00;;
41253;SDS011;26987;59.928;30.306;2023-04-24T03:37:39;19.20;;;3.00;;
41253;SDS011;26987;59.928;30.306;2023-04-24T03:40:34;16.33;;;2.78;;
41253;SDS011;26987;59.928;30.306;2023-04-24T03:43:05;11.32;;;3.38;;
41253;SDS011;26987;59.928;30.306;2023-04-24T03:45:33;12.02;;;2.80;;
41253;SDS011;26987;59.928;30.306;2023-04-24T03:48:01;35.13;;;3.58;;
41253;SDS011;26987;59.928;30.306;2023-04-24T03:50:29;14.57;;;3.30;;
41253;SDS011;26987;59.928;30.306;2023-04-24T03:52:58;25.38;;;3.13;;
41253;SDS011;26987;59.928;30.306;2023-04-24T03:55:37;11.63;;;3.55;;
41253;SDS011;26987;59.928;30.306;2023-04-24T03:58:05;11.90;;;3.33;;
41253;SDS011;26987;59.928;30.306;2023-04-24T04:00:33;10.75;;;3.35;;
41253;SDS011;26987;59.928;30.306;2023-04-24T04:03:21;10.18;;;3.60;;
41253;SDS011;26987;59.928;30.306;2023-04-24T04:05:49;9.38;;;2.80;;
41253;SDS011;26987;59.928;30.306;2023-04-24T04:08:17;15.68;;;3.30;;
41253;SDS011;26987;59.928;30.306;2023-04-24T04:10:46;11.50;;;3.10;;
41253;SDS011;26987;59.928;30.306;2023-04-24T04:13:14;12.00;;;3.03;;
41253;SDS011;26987;59.928;30.306;2023-04-24T04:15:42;10.27;;;3.20;;
41253;SDS011;26987;59.928;30.306;2023-04-24T04:18:10;7.72;;;3.10;;
41253;SDS011;26987;59.928;30.306;2023-04-24T04:20:38;11.40;;;3.38;;
41253;SDS011;26987;59.928;30.306;2023-04-24T04:23:06;11.27;;;3.53;;
41253;SDS011;26987;59.928;30.306;2023-04-24T04:25:55;7.65;;;3.00;;
41253;SDS011;26987;59.928;30.306;2023-04-24T04:28:29;13.40;;;3.53;;
41253;SDS011;26987;59.928;30.306;2023-04-24T04:30:58;10.25;;;2.72;;
41253;SDS011;26987;59.928;30.306;2023-04-24T04:33:26;10.98;;;3.75;;
41253;SDS011;26987;59.928;30.306;2023-04-24T04:35:54;13.80;;;2.97;;
41253;SDS011;26987;59.928;30.306;2023-04-24T04:38:26;8.90;;;3.38;;
41253;SDS011;26987;59.928;30.306;2023-04-24T04:43:51;10.73;;;3.00;;
41253;SDS011;26987;59.928;30.306;2023-04-24T04:46:20;15.90;;;3.67;;
41253;SDS011;26987;59.928;30.306;2023-04-24T04:49:08;11.55;;;3.03;;
41253;SDS011;26987;59.928;30.306;2023-04-24T04:51:37;14.60;;;3.50;;
41253;SDS011;26987;59.928;30.306;2023-04-24T04:54:05;14.40;;;3.13;;
41253;SDS011;26987;59.928;30.306;2023-04-24T04:56:36;17.75;;;4.28;;
41253;SDS011;26987;59.928;30.306;2023-04-24T04:59:04;9.15;;;3.67;;
41253;SDS011;26987;59.928;30.306;2023-04-24T05:01:33;13.02;;;4.15;;
41253;SDS011;26987;59.928;30.306;2023-04-24T05:04:01;13.88;;;3.15;;
41253;SDS011;26987;59.928;30.306;2023-04-24T05:06:29;12.20;;;3.42;;
41253;SDS011;26987;59.928;30.306;2023-04-24T05:08:57;18.20;;;3.50;;
41253;SDS011;26987;59.928;30.306;2023-04-24T05:11:33;14.55;;;3.83;;
41253;SDS011;26987;59.928;30.306;2023-04-24T05:14:03;12.93;;;3.80;;
41253;SDS011;26987;59.928;30.306;2023-04-24T05:16:35;19.42;;;3.70;;
41253;SDS011;26987;59.928;30.306;2023-04-24T05:19:05;16.05;;;3.60;;
41253;SDS011;26987;59.928;30.306;2023-04-24T05:21:39;15.50;;;3.63;;
41253;SDS011;26987;59.928;30.306;2023-04-24T05:24:11;15.32;;;3.10;;
41253;SDS011;26987;59.928;30.306;2023-04-24T05:26:56;20.02;;;3.78;;
41253;SDS011;26987;59.928;30.306;2023-04-24T05:29:31;15.13;;;4.15;;
41253;SDS011;26987;59.928;30.306;2023-04-24T05:31:59;18.83;;;4.10;;
41253;SDS011;26987;59.928;30.306;2023-04-24T05:34:29;20.98;;;4.00;;
41253;SDS011;26987;59.928;30.306;2023-04-24T05:36:59;13.02;;;4.22;;
41253;SDS011;26987;59.928;30.306;2023-04-24T05:39:27;17.25;;;3.65;;
41253;SDS011;26987;59.928;30.306;2023-04-24T05:41:55;19.58;;;3.63;;
41253;SDS011;26987;59.928;30.306;2023-04-24T05:44:24;11.38;;;3.50;;
41253;SDS011;26987;59.928;30.306;2023-04-24T05:46:53;15.27;;;3.50;;
41253;SDS011;26987;59.928;30.306;2023-04-24T05:49:22;15.77;;;4.38;;
41253;SDS011;26987;59.928;30.306;2023-04-24T05:51:50;31.05;;;4.50;;
41253;SDS011;26987;59.928;30.306;2023-04-24T05:54:18;12.25;;;3.55;;
41253;SDS011;26987;59.928;30.306;2023-04-24T05:56:46;19.50;;;3.90;;
41253;SDS011;26987;59.928;30.306;2023-04-24T05:59:21;18.65;;;3.53;;
41253;SDS011;26987;59.928;30.306;2023-04-24T06:01:50;20.55;;;5.13;;
41253;SDS011;26987;59.928;30.306;2023-04-24T06:04:22;16.42;;;3.42;;
41253;SDS011;26987;59.928;30.306;2023-04-24T06:06:51;19.17;;;3.72;;
41253;SDS011;26987;59.928;30.306;2023-04-24T06:09:22;8.38;;;3.22;;
41253;SDS011;26987;59.928;30.306;2023-04-24T06:11:50;11.95;;;3.08;;
41253;SDS011;26987;59.928;30.306;2023-04-24T06:14:21;11.93;;;3.40;;
41253;SDS011;26987;59.928;30.306;2023-04-24T06:17:23;17.15;;;3.33;;
41253;SDS011;26987;59.928;30.306;2023-04-24T06:19:53;9.75;;;3.17;;
41253;SDS011;26987;59.928;30.306;2023-04-24T06:22:22;12.68;;;3.17;;
41253;SDS011;26987;59.928;30.306;2023-04-24T06:24:50;15.57;;;3.67;;
41253;SDS011;26987;59.928;30.306;2023-04-24T06:27:18;10.15;;;3.00;;
41253;SDS011;26987;59.928;30.306;2023-04-24T06:29:46;13.10;;;2.22;;
41253;SDS011;26987;59.928;30.306;2023-04-24T06:32:20;17.10;;;3.25;;
41253;SDS011;26987;59.928;30.306;2023-04-24T06:34:49;10.55;;;2.80;;
41253;SDS011;26987;59.928;30.306;2023-04-24T06:37:19;13.27;;;2.70;;
41253;SDS011;26987;59.928;30.306;2023-04-24T06:39:47;15.40;;;2.78;;
41253;SDS011;26987;59.928;30.306;2023-04-24T06:42:16;15.05;;;5.30;;
41253;SDS011;26987;59.928;30.306;2023-04-24T06:44:44;13.95;;;3.88;;
41253;SDS011;26987;59.928;30.306;2023-04-24T06:47:11;8.85;;;2.88;;
41253;SDS011;26987;59.928;30.306;2023-04-24T06:49:39;14.80;;;3.97;;
41253;SDS011;26987;59.928;30.306;2023-04-24T06:52:08;9.00;;;3.25;;
41253;SDS011;26987;59.928;30.306;2023-04-24T06:54:37;10.68;;;3.45;;
41253;SDS011;26987;59.928;30.306;2023-04-24T06:57:05;18.75;;;3.63;;
41253;SDS011;26987;59.928;30.306;2023-04-24T06:59:33;7.10;;;2.50;;
41253;SDS011;26987;59.928;30.306;2023-04-24T07:02:01;9.38;;;2.72;;
41253;SDS011;26987;59.928;30.306;2023-04-24T07:04:28;14.05;;;3.53;;
41253;SDS011;26987;59.928;30.306;2023-04-24T07:06:56;19.75;;;2.95;;
41253;SDS011;26987;59.928;30.306;2023-04-24T07:09:25;10.02;;;2.95;;
41253;SDS011;26987;59.928;30.306;2023-04-24T07:11:54;13.98;;;3.10;;
41253;SDS011;26987;59.928;30.306;2023-04-24T07:14:23;12.88;;;3.60;;
41253;SDS011;26987;59.928;30.306;2023-04-24T07:16:51;20.80;;;4.07;;
41253;SDS011;26987;59.928;30.306;2023-04-24T07:19:19;19.45;;;3.85;;
41253;SDS011;26987;59.928;30.306;2023-04-24T07:21:47;11.63;;;3.10;;
41253;SDS011;26987;59.928;30.306;2023-04-24T07:24:14;28.52;;;3.47;;
41253;SDS011;26987;59.928;30.306;2023-04-24T07:26:42;12.77;;;3.22;;
41253;SDS011;26987;59.928;30.306;2023-04-24T07:29:13;26.10;;;3.17;;
41253;SDS011;26987;59.928;30.306;2023-04-24T07:31:41;23.75;;;3.85;;
41253;SDS011;26987;59.928;30.306;2023-04-24T07:34:09;14.27;;;2.80;;
41253;SDS011;26987;59.928;30.306;2023-04-24T07:36:37;24.75;;;3.15;;
41253;SDS011;26987;59.928;30.306;2023-04-24T07:39:05;15.13;;;3.15;;
41253;SDS011;26987;59.928;30.306;2023-04-24T07:41:33;18.45;;;2.88;;
41253;SDS011;26987;59.928;30.306;2023-04-24T07:44:01;17.48;;;3.90;;
41253;SDS011;26987;59.928;30.306;2023-04-24T07:46:30;15.23;;;3.15;;
41253;SDS011;26987;59.928;30.306;2023-04-24T07:48:59;24.55;;;3.17;;
41253;SDS011;26987;59.928;30.306;2023-04-24T07:51:27;27.05;;;4.35;;
41253;SDS011;26987;59.928;30.306;2023-04-24T07:53:56;31.98;;;3.60;;
41253;SDS011;26987;59.928;30.306;2023-04-24T07:56:24;19.77;;;4.10;;
41253;SDS011;26987;59.928;30.306;2023-04-24T07:58:52;28.33;;;2.95;;
41253;SDS011;26987;59.928;30.306;2023-04-24T08:01:19;42.63;;;3.53;;
41253;SDS011;26987;59.928;30.306;2023-04-24T08:03:50;24.75;;;3.22;;
41253;SDS011;26987;59.928;30.306;2023-04-24T08:06:18;37.53;;;3.15;;
41253;SDS011;26987;59.928;30.306;2023-04-24T08:08:46;17.23;;;4.20;;
41253;SDS011;26987;59.928;30.306;2023-04-24T08:11:14;15.68;;;3.15;;
41253;SDS011;26987;59.928;30.306;2023-04-24T08:13:41;42.70;;;3.30;;
41253;SDS011;26987;59.928;30.306;2023-04-24T08:16:09;16.60;;;2.40;;
41253;SDS011;26987;59.928;30.306;2023-04-24T08:18:37;21.42;;;2.72;;
41253;SDS011;26987;59.928;30.306;2023-04-24T08:21:06;21.35;;;3.25;;
41253;SDS011;26987;59.928;30.306;2023-04-24T08:23:34;21.48;;;2.25;;
41253;SDS011;26987;59.928;30.306;2023-04-24T08:26:02;25.02;;;3.50;;
41253;SDS011;26987;59.928;30.306;2023-04-24T08:28:30;18.77;;;2.53;;
41253;SDS011;26987;59.928;30.306;2023-04-24T08:30:58;27.60;;;3.40;;
41253;SDS011;26987;59.928;30.306;2023-04-24T08:33:26;16.60;;;3.80;;
41253;SDS011;26987;59.928;30.306;2023-04-24T08:35:58;25.40;;;3.45;;
41253;SDS011;26987;59.928;30.306;2023-04-24T08:38:28;17.17;;;3.03;;
41253;SDS011;26987;59.928;30.306;2023-04-24T08:40:56;19.77;;;3.03;;
41253;SDS011;26987;59.928;30.306;2023-04-24T08:43:25;25.73;;;3.33;;
41253;SDS011;26987;59.928;30.306;2023-04-24T08:45:55;29.60;;;3.80;;
41253;SDS011;26987;59.928;30.306;2023-04-24T08:48:23;25.05;;;3.53;;
41253;SDS011;26987;59.928;30.306;2023-04-24T08:50:52;27.42;;;4.40;;
41253;SDS011;26987;59.928;30.306;2023-04-24T08:53:21;25.05;;;3.15;;
41253;SDS011;26987;59.928;30.306;2023-04-24T08:55:51;12.18;;;3.38;;
41253;SDS011;26987;59.928;30.306;2023-04-24T08:58:21;26.98;;;4.70;;
41253;SDS011;26987;59.928;30.306;2023-04-24T09:00:50;25.95;;;3.78;;
41253;SDS011;26987;59.928;30.306;2023-04-24T09:03:18;20.67;;;3.47;;
41253;SDS011;26987;59.928;30.306;2023-04-24T09:05:48;33.53;;;3.33;;
41253;SDS011;26987;59.928;30.306;2023-04-24T09:08:17;20.15;;;2.95;;
41253;SDS011;26987;59.928;30.306;2023-04-24T09:10:46;17.05;;;2.80;;
41253;SDS011;26987;59.928;30.306;2023-04-24T09:13:15;21.20;;;3.63;;
41253;SDS011;26987;59.928;30.306;2023-04-24T09:15:43;16.38;;;3.20;;
41253;SDS011;26987;59.928;30.306;2023-04-24T09:18:11;13.32;;;2.78;;
41253;SDS011;26987;59.928;30.306;2023-04-24T09:23:25;14.85;;;3.42;;
41253;SDS011;26987;59.928;30.306;2023-04-24T09:25:54;27.80;;;3.58;;
41253;SDS011;26987;59.928;30.306;2023-04-24T09:28:26;45.78;;;4.40;;
41253;SDS011;26987;59.928;30.306;2023-04-24T09:31:06;20.07;;;3.57;;
41253;SDS011;26987;59.928;30.306;2023-04-24T09:33:36;25.33;;;4.53;;
41253;SDS011;26987;59.928;30.306;2023-04-24T09:36:04;15.60;;;2.55;;
41253;SDS011;26987;59.928;30.306;2023-04-24T09:38:34;18.60;;;4.07;;
41253;SDS011;26987;59.928;30.306;2023-04-24T09:41:03;20.38;;;3.85;;
41253;SDS011;26987;59.928;30.306;2023-04-24T09:43:34;14.80;;;3.00;;
41253;SDS011;26987;59.928;30.306;2023-04-24T09:46:04;16.02;;;4.88;;
41253;SDS011;26987;59.928;30.306;2023-04-24T09:48:33;14.95;;;3.95;;
41253;SDS011;26987;59.928;30.306;2023-04-24T09:51:03;18.52;;;3.35;;
41253;SDS011;26987;59.928;30.306;2023-04-24T09:53:33;14.20;;;2.90;;
41253;SDS011;26987;59.928;30.306;2023-04-24T09:56:06;17.83;;;3.10;;
41253;SDS011;26987;59.928;30.306;2023-04-24T09:58:37;32.53;;;3.20;;
41253;SDS011;26987;59.928;30.306;2023-04-24T10:01:04;12.88;;;4.10;;
41253;SDS011;26987;59.928;30.306;2023-04-24T10:03:33;15.13;;;3.60;;
41253;SDS011;26987;59.928;30.306;2023-04-24T10:06:01;21.33;;;3.03;;
41253;SDS011;26987;59.928;30.306;2023-04-24T10:08:34;9.38;;;2.78;;
41253;SDS011;26987;59.928;30.306;2023-04-24T10:11:03;21.20;;;3.10;;
41253;SDS011;26987;59.928;30.306;2023-04-24T10:13:31;12.00;;;3.05;;
41253;SDS011;26987;59.928;30.306;2023-04-24T10:16:01;11.85;;;2.72;;
41253;SDS011;26987;59.928;30.306;2023-04-24T10:18:30;9.10;;;2.47;;
41253;SDS011;26987;59.928;30.306;2023-04-24T10:20:59;16.38;;;3.53;;
41253;SDS011;26987;59.928;30.306;2023-04-24T10:23:28;9.70;;;3.10;;
41253;SDS011;26987;59.928;30.306;2023-04-24T10:25:57;8.27;;;3.15;;
41253;SDS011;26987;59.928;30.306;2023-04-24T10:28:27;9.73;;;2.47;;
41253;SDS011;26987;59.928;30.306;2023-04-24T10:30:56;15.55;;;3.58;;
41253;SDS011;26987;59.928;30.306;2023-04-24T10:33:26;11.60;;;2.72;;
41253;SDS011;26987;59.928;30.306;2023-04-24T10:35:56;8.85;;;2.90;;
41253;SDS011;26987;59.928;30.306;2023-04-24T10:38:25;11.82;;;2.90;;
41253;SDS011;26987;59.928;30.306;2023-04-24T10:41:06;29.20;;;3.20;;
41253;SDS011;26987;59.928;30.306;2023-04-24T10:43:39;15.50;;;3.13;;
41253;SDS011;26987;59.928;30.306;2023-04-24T10:46:07;15.95;;;2.60;;
41253;SDS011;26987;59.928;30.306;2023-04-24T10:48:37;18.67;;;2.50;;
41253;SDS011;26987;59.928;30.306;2023-04-24T10:51:14;18.17;;;2.90;;
41253;SDS011;26987;59.928;30.306;2023-04-24T10:53:42;14.40;;;3.17;;
41253;SDS011;26987;59.928;30.306;2023-04-24T10:56:10;12.90;;;2.63;;
41253;SDS011;26987;59.928;30.306;2023-04-24T10:58:40;10.27;;;2.20;;
41253;SDS011;26987;59.928;30.306;2023-04-24T11:01:22;12.63;;;3.55;;
41253;SDS011;26987;59.928;30.306;2023-04-24T11:03:56;8.80;;;2.90;;
41253;SDS011;26987;59.928;30.306;2023-04-24T11:06:31;12.43;;;2.63;;
41253;SDS011;26987;59.928;30.306;2023-04-24T11:09:04;12.35;;;3.03;;
41253;SDS011;26987;59.928;30.306;2023-04-24T11:11:34;13.30;;;2.78;;
41253;SDS011;26987;59.928;30.306;2023-04-24T11:14:06;7.57;;;2.72;;
41253;SDS011;26987;59.928;30.306;2023-04-24T11:16:36;9.77;;;2.65;;
41253;SDS011;26987;59.928;30.306;2023-04-24T11:19:08;8.95;;;2.33;;
41253;SDS011;26987;59.928;30.306;2023-04-24T11:21:41;16.70;;;2.65;;
41253;SDS011;26987;59.928;30.306;2023-04-24T11:24:26;10.05;;;3.40;;
41253;SDS011;26987;59.928;30.306;2023-04-24T11:26:57;28.25;;;2.50;;
41253;SDS011;26987;59.928;30.306;2023-04-24T11:32:16;4.20;;;1.70;;
41253;SDS011;26987;59.928;30.306;2023-04-24T11:34:51;7.90;;;2.50;;
41253;SDS011;26987;59.928;30.306;2023-04-24T11:37:21;5.72;;;2.83;;
41253;SDS011;26987;59.928;30.306;2023-04-24T11:39:50;9.63;;;2.83;;
41253;SDS011;26987;59.928;30.306;2023-04-24T11:42:20;9.45;;;3.35;;
41253;SDS011;26987;59.928;30.306;2023-04-24T11:44:49;17.48;;;3.58;;
41253;SDS011;26987;59.928;30.306;2023-04-24T11:47:19;12.05;;;2.58;;
41253;SDS011;26987;59.928;30.306;2023-04-24T11:49:49;14.13;;;2.75;;
41253;SDS011;26987;59.928;30.306;2023-04-24T11:52:19;6.43;;;2.17;;
41253;SDS011;26987;59.928;30.306;2023-04-24T11:54:47;11.10;;;2.67;;
41253;SDS011;26987;59.928;30.306;2023-04-24T11:57:16;6.90;;;3.08;;
41253;SDS011;26987;59.928;30.306;2023-04-24T11:59:47;15.07;;;3.40;;
41253;SDS011;26987;59.928;30.306;2023-04-24T12:02:20;9.77;;;3.08;;
41253;SDS011;26987;59.928;30.306;2023-04-24T12:04:48;12.20;;;3.30;;
41253;SDS011;26987;59.928;30.306;2023-04-24T12:07:18;11.43;;;3.20;;
41253;SDS011;26987;59.928;30.306;2023-04-24T12:09:47;16.42;;;3.65;;
41253;SDS011;26987;59.928;30.306;2023-04-24T12:12:17;14.38;;;3.35;;
41253;SDS011;26987;59.928;30.306;2023-04-24T12:14:49;10.77;;;3.35;;
41253;SDS011;26987;59.928;30.306;2023-04-24T12:17:23;16.67;;;4.25;;
41253;SDS011;26987;59.928;30.306;2023-04-24T12:19:56;14.32;;;3.00;;
41253;SDS011;26987;59.928;30.306;2023-04-24T12:22:27;8.50;;;2.90;;
41253;SDS011;26987;59.928;30.306;2023-04-24T12:24:55;11.75;;;3.60;;
41253;SDS011;26987;59.928;30.306;2023-04-24T12:27:24;7.57;;;2.97;;
41253;SDS011;26987;59.928;30.306;2023-04-24T12:29:52;9.55;;;2.83;;
41253;SDS011;26987;59.928;30.306;2023-04-24T12:32:22;7.40;;;2.97;;
41253;SDS011;26987;59.928;30.306;2023-04-24T12:34:51;10.35;;;3.30;;
41253;SDS011;26987;59.928;30.306;2023-04-24T12:37:19;7.35;;;2.97;;
41253;SDS011;26987;59.928;30.306;2023-04-24T12:40:02;9.60;;;3.13;;
41253;SDS011;26987;59.928;30.306;2023-04-24T12:42:32;19.33;;;3.65;;
41253;SDS011;26987;59.928;30.306;2023-04-24T12:45:02;10.98;;;3.08;;
41253;SDS011;26987;59.928;30.306;2023-04-24T12:47:31;8.77;;;2.95;;
41253;SDS011;26987;59.928;30.306;2023-04-24T12:50:00;10.45;;;3.40;;
41253;SDS011;26987;59.928;30.306;2023-04-24T12:52:29;14.90;;;3.72;;
41253;SDS011;26987;59.928;30.306;2023-04-24T12:54:58;15.00;;;2.63;;
41253;SDS011;26987;59.928;30.306;2023-04-24T12:57:29;11.48;;;2.92;;
41253;SDS011;26987;59.928;30.306;2023-04-24T12:59:57;16.23;;;2.90;;
41253;SDS011;26987;59.928;30.306;2023-04-24T13:02:27;9.45;;;2.90;;
41253;SDS011;26987;59.928;30.306;2023-04-24T13:04:56;9.88;;;3.08;;
41253;SDS011;26987;59.928;30.306;2023-04-24T13:07:25;15.20;;;3.03;;
41253;SDS011;26987;59.928;30.306;2023-04-24T13:09:53;20.40;;;3.50;;
41253;SDS011;26987;59.928;30.306;2023-04-24T13:12:22;6.45;;;2.50;;
41253;SDS011;26987;59.928;30.306;2023-04-24T13:14:52;11.68;;;2.80;;
41253;SDS011;26987;59.928;30.306;2023-04-24T13:17:21;8.57;;;3.22;;
41253;SDS011;26987;59.928;30.306;2023-04-24T13:19:50;8.75;;;3.33;;
41253;SDS011;26987;59.928;30.306;2023-04-24T13:22:18;5.97;;;2.67;;
41253;SDS011;26987;59.928;30.306;2023-04-24T13:24:46;9.50;;;3.17;;
41253;SDS011;26987;59.928;30.306;2023-04-24T13:27:14;9.60;;;3.65;;
41253;SDS011;26987;59.928;30.306;2023-04-24T13:29:42;10.63;;;3.42;;
41253;SDS011;26987;59.928;30.306;2023-04-24T13:32:12;10.02;;;4.05;;
41253;SDS011;26987;59.928;30.306;2023-04-24T13:34:39;7.93;;;2.97;;
41253;SDS011;26987;59.928;30.306;2023-04-24T13:37:07;9.60;;;4.32;;
41253;SDS011;26987;59.928;30.306;2023-04-24T13:39:35;21.10;;;4.70;;
41253;SDS011;26987;59.928;30.306;2023-04-24T13:42:03;13.55;;;4.25;;
41253;SDS011;26987;59.928;30.306;2023-04-24T13:44:31;14.00;;;4.13;;
41253;SDS011;26987;59.928;30.306;2023-04-24T13:46:59;11.30;;;4.75;;
41253;SDS011;26987;59.928;30.306;2023-04-24T13:49:28;20.42;;;4.90;;
41253;SDS011;26987;59.928;30.306;2023-04-24T13:51:56;18.20;;;5.57;;
41253;SDS011;26987;59.928;30.306;2023-04-24T13:54:24;15.23;;;5.63;;
41253;SDS011;26987;59.928;30.306;2023-04-24T13:56:52;25.42;;;6.95;;
41253;SDS011;26987;59.928;30.306;2023-04-24T13:59:20;21.58;;;6.57;;
41253;SDS011;26987;59.928;30.306;2023-04-24T14:01:48;20.50;;;6.13;;
41253;SDS011;26987;59.928;30.306;2023-04-24T14:04:16;18.63;;;6.38;;
41253;SDS011;26987;59.928;30.306;2023-04-24T14:06:45;19.00;;;6.50;;
41253;SDS011;26987;59.928;30.306;2023-04-24T14:09:13;35.40;;;7.57;;
41253;SDS011;26987;59.928;30.306;2023-04-24T14:11:41;18.70;;;7.07;;
41253;SDS011;26987;59.928;30.306;2023-04-24T14:14:09;18.13;;;5.65;;
41253;SDS011;26987;59.928;30.306;2023-04-24T14:16:37;19.45;;;7.13;;
41253;SDS011;26987;59.928;30.306;2023-04-24T14:19:05;22.98;;;5.97;;
41253;SDS011;26987;59.928;30.306;2023-04-24T14:21:33;24.92;;;7.05;;
41253;SDS011;26987;59.928;30.306;2023-04-24T14:24:02;27.02;;;6.93;;
41253;SDS011;26987;59.928;30.306;2023-04-24T14:26:30;13.30;;;6.18;;
41253;SDS011;26987;59.928;30.306;2023-04-24T14:28:58;25.85;;;6.43;;
41253;SDS011;26987;59.928;30.306;2023-04-24T14:31:26;23.02;;;6.60;;
41253;SDS011;26987;59.928;30.306;2023-04-24T14:33:54;21.45;;;6.10;;
41253;SDS011;26987;59.928;30.306;2023-04-24T14:36:23;18.45;;;6.95;;
41253;SDS011;26987;59.928;30.306;2023-04-24T14:38:51;16.55;;;7.57;;
41253;SDS011;26987;59.928;30.306;2023-04-24T14:41:20;12.57;;;6.82;;
41253;SDS011;26987;59.928;30.306;2023-04-24T14:43:48;19.67;;;8.27;;
41253;SDS011;26987;59.928;30.306;2023-04-24T14:46:16;19.33;;;7.43;;
41253;SDS011;26987;59.928;30.306;2023-04-24T14:48:44;25.70;;;8.70;;